sensor_id;sensor_type;location;lat;lon;timestamp;P1;durP1;ratioP1;P2;durP2;ratioP2
13975;SDS011;7062;49.792;9.946;2023-08-06T00:00:15;4.03;;;2.10;;
13975;SDS011;7062;49.792;9.946;2023-08-06T00:02:41;4.07;;;1.93;;
13975;SDS011;7062;49.792;9.946;2023-08-06T00:05:07;3.00;;;1.97;;
13975;SDS011;7062;49.792;9.946;2023-08-06T00:07:33;3.13;;;2.13;;
13975;SDS011;7062;49.792;9.946;2023-08-06T00:09:58;2.63;;;1.97;;
13975;SDS011;7062;49.792;9.946;2023-08-06T00:12:24;1.93;;;1.53;;
13975;SDS011;7062;49.792;9.946;2023-08-06T00:14:50;1.80;;;1.63;;
13975;SDS011;7062;49.792;9.946;2023-08-06T00:17:17;4.60;;;1.77;;
13975;SDS011;7062;49.792;9.946;2023-08-06T00:19:42;2.40;;;1.73;;
13975;SDS011;7062;49.792;9.946;2023-08-06T00:22:08;2.90;;;1.27;;
13975;SDS011;7062;49.792;9.946;2023-08-06T00:24:34;1.80;;;1.30;;
13975;SDS011;7062;49.792;9.946;2023-08-06T00:27:00;2.90;;;1.10;;
13975;SDS011;7062;49.792;9.946;2023-08-06T00:29:26;1.93;;;1.07;;
13975;SDS011;7062;49.792;9.946;2023-08-06T00:31:52;2.67;;;1.17;;
13975;SDS011;7062;49.792;9.946;2023-08-06T00:34:17;1.50;;;0.93;;
13975;SDS011;7062;49.792;9.946;2023-08-06T00:36:43;1.20;;;1.10;;
13975;SDS011;7062;49.792;9.946;2023-08-06T00:39:09;1.80;;;1.23;;
13975;SDS011;7062;49.792;9.946;2023-08-06T00:41:34;2.37;;;1.30;;
13975;SDS011;7062;49.792;9.946;2023-08-06T00:44:00;2.67;;;1.30;;
13975;SDS011;7062;49.792;9.946;2023-08-06T00:46:26;1.57;;;1.23;;
13975;SDS011;7062;49.792;9.946;2023-08-06T00:48:52;1.87;;;1.30;;
13975;SDS011;7062;49.792;9.946;2023-08-06T00:51:18;1.80;;;1.20;;
13975;SDS011;7062;49.792;9.946;2023-08-06T00:53:44;1.17;;;1.00;;
13975;SDS011;7062;49.792;9.946;2023-08-06T00:56:10;1.70;;;1.17;;
13975;SDS011;7062;49.792;9.946;2023-08-06T00:58:37;2.83;;;1.00;;
13975;SDS011;7062;49.792;9.946;2023-08-06T01:01:03;1.40;;;0.97;;
13975;SDS011;7062;49.792;9.946;2023-08-06T01:03:29;1.50;;;1.20;;
13975;SDS011;7062;49.792;9.946;2023-08-06T01:05:54;1.80;;;1.40;;
13975;SDS011;7062;49.792;9.946;2023-08-06T01:14:02;1.40;;;1.20;;
13975;SDS011;7062;49.792;9.946;2023-08-06T01:16:36;1.93;;;1.37;;
13975;SDS011;7062;49.792;9.946;2023-08-06T01:19:02;2.67;;;1.40;;
13975;SDS011;7062;49.792;9.946;2023-08-06T01:21:28;1.87;;;1.50;;
13975;SDS011;7062;49.792;9.946;2023-08-06T01:23:53;1.70;;;1.60;;
13975;SDS011;7062;49.792;9.946;2023-08-06T01:29:06;1.47;;;1.37;;
13975;SDS011;7062;49.792;9.946;2023-08-06T01:31:43;2.10;;;1.30;;
13975;SDS011;7062;49.792;9.946;2023-08-06T01:34:10;1.80;;;1.70;;
13975;SDS011;7062;49.792;9.946;2023-08-06T01:36:42;4.17;;;1.73;;
13975;SDS011;7062;49.792;9.946;2023-08-06T01:39:09;4.53;;;1.53;;
13975;SDS011;7062;49.792;9.946;2023-08-06T01:41:35;5.83;;;1.60;;
13975;SDS011;7062;49.792;9.946;2023-08-06T01:44:01;2.83;;;1.23;;
13975;SDS011;7062;49.792;9.946;2023-08-06T01:46:26;2.13;;;1.53;;
13975;SDS011;7062;49.792;9.946;2023-08-06T01:48:52;3.73;;;1.20;;
13975;SDS011;7062;49.792;9.946;2023-08-06T01:51:18;2.00;;;1.47;;
13975;SDS011;7062;49.792;9.946;2023-08-06T01:53:43;5.13;;;1.67;;
13975;SDS011;7062;49.792;9.946;2023-08-06T01:56:09;3.07;;;1.30;;
13975;SDS011;7062;49.792;9.946;2023-08-06T01:58:34;6.00;;;1.47;;
13975;SDS011;7062;49.792;9.946;2023-08-06T02:01:01;3.30;;;1.37;;
13975;SDS011;7062;49.792;9.946;2023-08-06T02:03:27;1.40;;;1.20;;
13975;SDS011;7062;49.792;9.946;2023-08-06T02:05:52;1.50;;;1.40;;
13975;SDS011;7062;49.792;9.946;2023-08-06T02:08:18;3.83;;;1.70;;
13975;SDS011;7062;49.792;9.946;2023-08-06T02:10:44;3.43;;;1.30;;
13975;SDS011;7062;49.792;9.946;2023-08-06T02:13:10;2.13;;;1.10;;
13975;SDS011;7062;49.792;9.946;2023-08-06T02:15:41;2.50;;;1.40;;
13975;SDS011;7062;49.792;9.946;2023-08-06T02:18:10;2.53;;;1.13;;
13975;SDS011;7062;49.792;9.946;2023-08-06T02:20:36;1.40;;;1.20;;
13975;SDS011;7062;49.792;9.946;2023-08-06T02:23:01;1.77;;;1.20;;
13975;SDS011;7062;49.792;9.946;2023-08-06T02:25:27;1.50;;;1.40;;
13975;SDS011;7062;49.792;9.946;2023-08-06T02:27:53;2.00;;;1.20;;
13975;SDS011;7062;49.792;9.946;2023-08-06T02:30:18;3.07;;;1.50;;
13975;SDS011;7062;49.792;9.946;2023-08-06T02:32:44;1.47;;;1.13;;
13975;SDS011;7062;49.792;9.946;2023-08-06T02:35:09;1.30;;;1.20;;
13975;SDS011;7062;49.792;9.946;2023-08-06T02:37:35;1.57;;;1.33;;
13975;SDS011;7062;49.792;9.946;2023-08-06T02:40:01;1.53;;;1.30;;
13975;SDS011;7062;49.792;9.946;2023-08-06T02:42:27;3.27;;;1.20;;
13975;SDS011;7062;49.792;9.946;2023-08-06T02:44:53;1.93;;;1.20;;
13975;SDS011;7062;49.792;9.946;2023-08-06T02:47:21;2.60;;;2.00;;
13975;SDS011;7062;49.792;9.946;2023-08-06T02:49:48;2.33;;;1.13;;
13975;SDS011;7062;49.792;9.946;2023-08-06T02:52:13;2.10;;;1.27;;
13975;SDS011;7062;49.792;9.946;2023-08-06T02:54:39;1.60;;;1.50;;
13975;SDS011;7062;49.792;9.946;2023-08-06T02:57:05;1.83;;;1.47;;
13975;SDS011;7062;49.792;9.946;2023-08-06T02:59:31;7.00;;;1.50;;
13975;SDS011;7062;49.792;9.946;2023-08-06T03:01:57;2.33;;;1.23;;
13975;SDS011;7062;49.792;9.946;2023-08-06T03:04:23;1.70;;;1.40;;
13975;SDS011;7062;49.792;9.946;2023-08-06T03:06:49;4.47;;;1.33;;
13975;SDS011;7062;49.792;9.946;2023-08-06T03:09:16;1.97;;;1.63;;
13975;SDS011;7062;49.792;9.946;2023-08-06T03:11:42;2.03;;;1.30;;
13975;SDS011;7062;49.792;9.946;2023-08-06T03:14:07;1.80;;;1.40;;
13975;SDS011;7062;49.792;9.946;2023-08-06T03:16:33;1.67;;;1.50;;
13975;SDS011;7062;49.792;9.946;2023-08-06T03:18:59;2.00;;;1.40;;
13975;SDS011;7062;49.792;9.946;2023-08-06T03:21:24;2.10;;;1.00;;
13975;SDS011;7062;49.792;9.946;2023-08-06T03:23:50;2.40;;;1.50;;
13975;SDS011;7062;49.792;9.946;2023-08-06T03:26:16;3.37;;;1.33;;
13975;SDS011;7062;49.792;9.946;2023-08-06T03:28:42;3.13;;;1.53;;
13975;SDS011;7062;49.792;9.946;2023-08-06T03:31:07;2.13;;;1.40;;
13975;SDS011;7062;49.792;9.946;2023-08-06T03:33:33;1.70;;;1.23;;
13975;SDS011;7062;49.792;9.946;2023-08-06T03:35:59;1.17;;;1.03;;
13975;SDS011;7062;49.792;9.946;2023-08-06T03:38:24;2.90;;;1.67;;
13975;SDS011;7062;49.792;9.946;2023-08-06T03:40:50;2.20;;;1.43;;
13975;SDS011;7062;49.792;9.946;2023-08-06T03:43:16;2.37;;;1.27;;
13975;SDS011;7062;49.792;9.946;2023-08-06T03:45:42;2.60;;;1.30;;
13975;SDS011;7062;49.792;9.946;2023-08-06T03:48:08;1.73;;;1.30;;
13975;SDS011;7062;49.792;9.946;2023-08-06T03:50:34;3.03;;;1.47;;
13975;SDS011;7062;49.792;9.946;2023-08-06T03:53:00;1.80;;;1.30;;
13975;SDS011;7062;49.792;9.946;2023-08-06T03:55:25;1.90;;;1.27;;
13975;SDS011;7062;49.792;9.946;2023-08-06T03:57:51;1.20;;;1.10;;
13975;SDS011;7062;49.792;9.946;2023-08-06T04:00:17;2.30;;;1.43;;
13975;SDS011;7062;49.792;9.946;2023-08-06T04:02:43;1.30;;;1.20;;
13975;SDS011;7062;49.792;9.946;2023-08-06T04:05:08;2.80;;;1.33;;
13975;SDS011;7062;49.792;9.946;2023-08-06T04:07:34;4.33;;;1.80;;
13975;SDS011;7062;49.792;9.946;2023-08-06T04:10:01;1.93;;;1.67;;
13975;SDS011;7062;49.792;9.946;2023-08-06T04:12:28;7.67;;;2.00;;
13975;SDS011;7062;49.792;9.946;2023-08-06T04:14:54;1.67;;;1.30;;
13975;SDS011;7062;49.792;9.946;2023-08-06T04:17:21;2.83;;;1.63;;
13975;SDS011;7062;49.792;9.946;2023-08-06T04:19:51;5.10;;;1.83;;
13975;SDS011;7062;49.792;9.946;2023-08-06T04:22:18;2.27;;;1.70;;
13975;SDS011;7062;49.792;9.946;2023-08-06T04:24:44;1.47;;;1.37;;
13975;SDS011;7062;49.792;9.946;2023-08-06T04:27:10;4.70;;;2.00;;
13975;SDS011;7062;49.792;9.946;2023-08-06T04:29:36;2.63;;;1.40;;
13975;SDS011;7062;49.792;9.946;2023-08-06T04:32:03;2.20;;;1.53;;
13975;SDS011;7062;49.792;9.946;2023-08-06T04:34:33;2.33;;;1.50;;
13975;SDS011;7062;49.792;9.946;2023-08-06T04:36:59;2.03;;;1.27;;
13975;SDS011;7062;49.792;9.946;2023-08-06T04:39:26;2.97;;;1.40;;
13975;SDS011;7062;49.792;9.946;2023-08-06T04:41:51;1.57;;;1.47;;
13975;SDS011;7062;49.792;9.946;2023-08-06T04:44:17;1.40;;;1.17;;
13975;SDS011;7062;49.792;9.946;2023-08-06T04:46:43;1.67;;;1.40;;
13975;SDS011;7062;49.792;9.946;2023-08-06T04:49:09;2.90;;;1.20;;
13975;SDS011;7062;49.792;9.946;2023-08-06T04:51:35;2.80;;;1.50;;
13975;SDS011;7062;49.792;9.946;2023-08-06T04:54:00;3.27;;;1.57;;
13975;SDS011;7062;49.792;9.946;2023-08-06T04:56:26;1.50;;;1.30;;
13975;SDS011;7062;49.792;9.946;2023-08-06T04:58:52;2.97;;;1.80;;
13975;SDS011;7062;49.792;9.946;2023-08-06T05:01:18;2.50;;;1.20;;
13975;SDS011;7062;49.792;9.946;2023-08-06T05:03:44;5.47;;;1.90;;
13975;SDS011;7062;49.792;9.946;2023-08-06T05:06:09;3.80;;;1.73;;
13975;SDS011;7062;49.792;9.946;2023-08-06T05:08:35;2.27;;;1.53;;
13975;SDS011;7062;49.792;9.946;2023-08-06T05:11:01;1.80;;;1.17;;
13975;SDS011;7062;49.792;9.946;2023-08-06T05:13:27;1.60;;;1.50;;
13975;SDS011;7062;49.792;9.946;2023-08-06T05:15:53;1.67;;;1.57;;
13975;SDS011;7062;49.792;9.946;2023-08-06T05:18:19;1.73;;;1.33;;
13975;SDS011;7062;49.792;9.946;2023-08-06T05:20:44;2.03;;;1.83;;
13975;SDS011;7062;49.792;9.946;2023-08-06T05:23:10;3.57;;;1.40;;
13975;SDS011;7062;49.792;9.946;2023-08-06T05:25:36;2.40;;;2.13;;
13975;SDS011;7062;49.792;9.946;2023-08-06T05:28:02;2.13;;;1.40;;
13975;SDS011;7062;49.792;9.946;2023-08-06T05:30:29;1.97;;;1.57;;
13975;SDS011;7062;49.792;9.946;2023-08-06T05:32:54;3.97;;;1.60;;
13975;SDS011;7062;49.792;9.946;2023-08-06T05:35:21;4.30;;;1.30;;
13975;SDS011;7062;49.792;9.946;2023-08-06T05:37:47;2.17;;;1.40;;
13975;SDS011;7062;49.792;9.946;2023-08-06T05:40:13;2.33;;;1.50;;
13975;SDS011;7062;49.792;9.946;2023-08-06T05:42:39;2.93;;;1.37;;
13975;SDS011;7062;49.792;9.946;2023-08-06T05:45:05;2.93;;;1.83;;
13975;SDS011;7062;49.792;9.946;2023-08-06T05:47:31;3.17;;;1.40;;
13975;SDS011;7062;49.792;9.946;2023-08-06T05:49:57;4.17;;;1.77;;
13975;SDS011;7062;49.792;9.946;2023-08-06T05:52:23;3.00;;;1.37;;
13975;SDS011;7062;49.792;9.946;2023-08-06T05:54:48;4.10;;;1.30;;
13975;SDS011;7062;49.792;9.946;2023-08-06T05:57:14;4.00;;;1.80;;
13975;SDS011;7062;49.792;9.946;2023-08-06T05:59:40;3.20;;;1.57;;
13975;SDS011;7062;49.792;9.946;2023-08-06T06:02:06;2.27;;;1.30;;
13975;SDS011;7062;49.792;9.946;2023-08-06T06:04:32;3.90;;;1.37;;
13975;SDS011;7062;49.792;9.946;2023-08-06T06:06:58;2.37;;;1.33;;
13975;SDS011;7062;49.792;9.946;2023-08-06T06:09:23;1.87;;;1.10;;
13975;SDS011;7062;49.792;9.946;2023-08-06T06:11:49;1.57;;;1.03;;
13975;SDS011;7062;49.792;9.946;2023-08-06T06:14:16;3.37;;;1.10;;
13975;SDS011;7062;49.792;9.946;2023-08-06T06:16:45;1.53;;;0.93;;
13975;SDS011;7062;49.792;9.946;2023-08-06T06:19:11;3.23;;;1.00;;
13975;SDS011;7062;49.792;9.946;2023-08-06T06:21:37;3.47;;;1.57;;
13975;SDS011;7062;49.792;9.946;2023-08-06T06:24:04;1.73;;;1.00;;
13975;SDS011;7062;49.792;9.946;2023-08-06T06:26:30;5.47;;;1.50;;
13975;SDS011;7062;49.792;9.946;2023-08-06T06:28:57;3.57;;;1.03;;
13975;SDS011;7062;49.792;9.946;2023-08-06T06:31:22;2.43;;;1.17;;
13975;SDS011;7062;49.792;9.946;2023-08-06T06:33:48;1.47;;;1.20;;
13975;SDS011;7062;49.792;9.946;2023-08-06T06:36:14;4.63;;;0.97;;
13975;SDS011;7062;49.792;9.946;2023-08-06T06:38:39;1.47;;;0.80;;
13975;SDS011;7062;49.792;9.946;2023-08-06T06:41:05;1.63;;;1.13;;
13975;SDS011;7062;49.792;9.946;2023-08-06T06:43:31;3.10;;;1.20;;
13975;SDS011;7062;49.792;9.946;2023-08-06T06:45:57;2.10;;;0.90;;
13975;SDS011;7062;49.792;9.946;2023-08-06T06:48:24;2.30;;;1.37;;
13975;SDS011;7062;49.792;9.946;2023-08-06T06:50:51;3.87;;;1.60;;
13975;SDS011;7062;49.792;9.946;2023-08-06T06:53:17;1.30;;;1.00;;
13975;SDS011;7062;49.792;9.946;2023-08-06T06:55:43;3.23;;;0.80;;
13975;SDS011;7062;49.792;9.946;2023-08-06T06:58:08;1.50;;;0.80;;
13975;SDS011;7062;49.792;9.946;2023-08-06T07:00:38;1.13;;;1.00;;
13975;SDS011;7062;49.792;9.946;2023-08-06T07:03:04;1.10;;;0.73;;
13975;SDS011;7062;49.792;9.946;2023-08-06T07:05:29;1.63;;;0.63;;
13975;SDS011;7062;49.792;9.946;2023-08-06T07:07:55;4.43;;;1.27;;
13975;SDS011;7062;49.792;9.946;2023-08-06T07:10:21;0.90;;;0.80;;
13975;SDS011;7062;49.792;9.946;2023-08-06T07:12:46;1.23;;;0.70;;
13975;SDS011;7062;49.792;9.946;2023-08-06T07:15:12;1.20;;;0.70;;
13975;SDS011;7062;49.792;9.946;2023-08-06T07:17:38;1.63;;;0.70;;
13975;SDS011;7062;49.792;9.946;2023-08-06T07:20:03;1.70;;;0.70;;
13975;SDS011;7062;49.792;9.946;2023-08-06T07:22:31;0.97;;;0.50;;
13975;SDS011;7062;49.792;9.946;2023-08-06T07:24:56;2.70;;;0.80;;
13975;SDS011;7062;49.792;9.946;2023-08-06T07:27:23;2.27;;;0.83;;
13975;SDS011;7062;49.792;9.946;2023-08-06T07:29:50;1.40;;;0.80;;
13975;SDS011;7062;49.792;9.946;2023-08-06T07:32:15;2.53;;;1.10;;
13975;SDS011;7062;49.792;9.946;2023-08-06T07:34:41;2.50;;;1.17;;
13975;SDS011;7062;49.792;9.946;2023-08-06T07:37:07;0.93;;;0.60;;
13975;SDS011;7062;49.792;9.946;2023-08-06T07:39:32;0.90;;;0.60;;
13975;SDS011;7062;49.792;9.946;2023-08-06T07:41:58;2.33;;;0.70;;
13975;SDS011;7062;49.792;9.946;2023-08-06T07:44:24;0.70;;;0.50;;
13975;SDS011;7062;49.792;9.946;2023-08-06T07:46:49;1.10;;;0.50;;
13975;SDS011;7062;49.792;9.946;2023-08-06T07:49:15;0.40;;;0.40;;
13975;SDS011;7062;49.792;9.946;2023-08-06T07:51:41;4.50;;;0.40;;
13975;SDS011;7062;49.792;9.946;2023-08-06T07:54:06;0.77;;;0.40;;
13975;SDS011;7062;49.792;9.946;2023-08-06T07:56:32;0.60;;;0.30;;
13975;SDS011;7062;49.792;9.946;2023-08-06T07:58:58;0.40;;;0.30;;
13975;SDS011;7062;49.792;9.946;2023-08-06T08:01:23;0.40;;;0.40;;
13975;SDS011;7062;49.792;9.946;2023-08-06T08:03:49;2.00;;;0.53;;
13975;SDS011;7062;49.792;9.946;2023-08-06T08:06:15;1.57;;;0.57;;
13975;SDS011;7062;49.792;9.946;2023-08-06T08:08:40;2.17;;;0.50;;
13975;SDS011;7062;49.792;9.946;2023-08-06T08:11:06;1.20;;;0.57;;
13975;SDS011;7062;49.792;9.946;2023-08-06T08:13:32;1.10;;;0.30;;
13975;SDS011;7062;49.792;9.946;2023-08-06T08:15:59;0.93;;;0.40;;
13975;SDS011;7062;49.792;9.946;2023-08-06T08:18:25;1.33;;;0.40;;
13975;SDS011;7062;49.792;9.946;2023-08-06T08:20:51;0.80;;;0.57;;
13975;SDS011;7062;49.792;9.946;2023-08-06T08:23:16;0.30;;;0.30;;
13975;SDS011;7062;49.792;9.946;2023-08-06T08:25:42;0.93;;;0.93;;
13975;SDS011;7062;49.792;9.946;2023-08-06T08:28:07;1.40;;;0.30;;
13975;SDS011;7062;49.792;9.946;2023-08-06T08:30:33;0.70;;;0.40;;
13975;SDS011;7062;49.792;9.946;2023-08-06T08:32:59;0.23;;;0.23;;
13975;SDS011;7062;49.792;9.946;2023-08-06T08:35:24;0.40;;;0.40;;
13975;SDS011;7062;49.792;9.946;2023-08-06T08:37:50;0.20;;;0.20;;
13975;SDS011;7062;49.792;9.946;2023-08-06T08:40:16;1.30;;;0.50;;
13975;SDS011;7062;49.792;9.946;2023-08-06T08:42:42;0.63;;;0.50;;
13975;SDS011;7062;49.792;9.946;2023-08-06T08:45:14;0.80;;;0.63;;
13975;SDS011;7062;49.792;9.946;2023-08-06T08:47:41;2.17;;;0.53;;
13975;SDS011;7062;49.792;9.946;2023-08-06T08:50:11;0.40;;;0.33;;
13975;SDS011;7062;49.792;9.946;2023-08-06T08:52:39;0.40;;;0.40;;
13975;SDS011;7062;49.792;9.946;2023-08-06T08:55:06;1.00;;;0.40;;
13975;SDS011;7062;49.792;9.946;2023-08-06T08:57:32;0.37;;;0.37;;
13975;SDS011;7062;49.792;9.946;2023-08-06T08:59:58;0.87;;;0.30;;
13975;SDS011;7062;49.792;9.946;2023-08-06T09:02:25;0.53;;;0.40;;
13975;SDS011;7062;49.792;9.946;2023-08-06T09:04:55;1.30;;;0.40;;
13975;SDS011;7062;49.792;9.946;2023-08-06T09:07:24;0.20;;;0.20;;
13975;SDS011;7062;49.792;9.946;2023-08-06T09:09:51;0.50;;;0.30;;
13975;SDS011;7062;49.792;9.946;2023-08-06T09:12:18;0.70;;;0.50;;
13975;SDS011;7062;49.792;9.946;2023-08-06T09:14:44;0.40;;;0.20;;
13975;SDS011;7062;49.792;9.946;2023-08-06T09:17:09;0.40;;;0.20;;
13975;SDS011;7062;49.792;9.946;2023-08-06T09:19:41;0.97;;;0.50;;
13975;SDS011;7062;49.792;9.946;2023-08-06T09:22:12;0.10;;;0.10;;
13975;SDS011;7062;49.792;9.946;2023-08-06T09:24:39;0.20;;;0.20;;
13975;SDS011;7062;49.792;9.946;2023-08-06T09:27:10;0.93;;;0.10;;
13975;SDS011;7062;49.792;9.946;2023-08-06T09:29:39;0.10;;;0.10;;
13975;SDS011;7062;49.792;9.946;2023-08-06T09:32:07;0.20;;;0.20;;
13975;SDS011;7062;49.792;9.946;2023-08-06T09:34:32;0.83;;;0.30;;
13975;SDS011;7062;49.792;9.946;2023-08-06T09:36:58;0.30;;;0.17;;
13975;SDS011;7062;49.792;9.946;2023-08-06T09:39:27;0.40;;;0.20;;
13975;SDS011;7062;49.792;9.946;2023-08-06T09:41:57;0.50;;;0.20;;
13975;SDS011;7062;49.792;9.946;2023-08-06T09:44:25;0.20;;;0.10;;
13975;SDS011;7062;49.792;9.946;2023-08-06T09:46:52;0.20;;;0.17;;
13975;SDS011;7062;49.792;9.946;2023-08-06T09:49:19;0.10;;;0.10;;
13975;SDS011;7062;49.792;9.946;2023-08-06T09:52:11;0.20;;;0.20;;
13975;SDS011;7062;49.792;9.946;2023-08-06T09:54:37;0.13;;;0.13;;
13975;SDS011;7062;49.792;9.946;2023-08-06T09:57:03;0.20;;;0.20;;
13975;SDS011;7062;49.792;9.946;2023-08-06T09:59:30;0.00;;;0.00;;
13975;SDS011;7062;49.792;9.946;2023-08-06T10:01:57;0.30;;;0.20;;
13975;SDS011;7062;49.792;9.946;2023-08-06T10:04:23;0.00;;;0.00;;
13975;SDS011;7062;49.792;9.946;2023-08-06T10:06:50;0.17;;;0.17;;
13975;SDS011;7062;49.792;9.946;2023-08-06T10:09:16;0.93;;;0.20;;
13975;SDS011;7062;49.792;9.946;2023-08-06T10:11:44;0.50;;;0.10;;
13975;SDS011;7062;49.792;9.946;2023-08-06T10:14:30;1.20;;;0.10;;
13975;SDS011;7062;49.792;9.946;2023-08-06T10:16:58;0.10;;;0.10;;
13975;SDS011;7062;49.792;9.946;2023-08-06T10:19:25;0.20;;;0.20;;
13975;SDS011;7062;49.792;9.946;2023-08-06T10:22:11;1.17;;;0.57;;
13975;SDS011;7062;49.792;9.946;2023-08-06T10:24:54;1.93;;;0.30;;
13975;SDS011;7062;49.792;9.946;2023-08-06T10:29:47;1.07;;;0.20;;
13975;SDS011;7062;49.792;9.946;2023-08-06T10:32:14;0.30;;;0.30;;
13975;SDS011;7062;49.792;9.946;2023-08-06T10:35:13;0.63;;;0.27;;
13975;SDS011;7062;49.792;9.946;2023-08-06T10:37:35;0.20;;;0.20;;
13975;SDS011;7062;49.792;9.946;2023-08-06T10:40:02;0.10;;;0.10;;
13975;SDS011;7062;49.792;9.946;2023-08-06T10:42:29;0.47;;;0.20;;
13975;SDS011;7062;49.792;9.946;2023-08-06T10:47:44;0.20;;;0.20;;
13975;SDS011;7062;49.792;9.946;2023-08-06T10:50:12;1.00;;;0.23;;
13975;SDS011;7062;49.792;9.946;2023-08-06T10:52:45;0.23;;;0.20;;
13975;SDS011;7062;49.792;9.946;2023-08-06T10:55:12;0.47;;;0.33;;
13975;SDS011;7062;49.792;9.946;2023-08-06T10:57:39;0.10;;;0.10;;
13975;SDS011;7062;49.792;9.946;2023-08-06T11:00:05;0.37;;;0.30;;
13975;SDS011;7062;49.792;9.946;2023-08-06T11:02:33;0.97;;;0.23;;
13975;SDS011;7062;49.792;9.946;2023-08-06T11:05:09;0.27;;;0.27;;
13975;SDS011;7062;49.792;9.946;2023-08-06T11:07:36;0.20;;;0.20;;
13975;SDS011;7062;49.792;9.946;2023-08-06T11:10:03;0.50;;;0.20;;
13975;SDS011;7062;49.792;9.946;2023-08-06T11:12:30;0.10;;;0.10;;
13975;SDS011;7062;49.792;9.946;2023-08-06T11:14:56;0.20;;;0.20;;
13975;SDS011;7062;49.792;9.946;2023-08-06T11:17:22;0.10;;;0.10;;
13975;SDS011;7062;49.792;9.946;2023-08-06T11:19:48;0.40;;;0.10;;
13975;SDS011;7062;49.792;9.946;2023-08-06T11:22:14;1.43;;;0.20;;
13975;SDS011;7062;49.792;9.946;2023-08-06T11:24:40;0.10;;;0.10;;
13975;SDS011;7062;49.792;9.946;2023-08-06T11:27:12;1.20;;;0.10;;
13975;SDS011;7062;49.792;9.946;2023-08-06T11:29:39;0.10;;;0.10;;
13975;SDS011;7062;49.792;9.946;2023-08-06T11:32:08;0.40;;;0.20;;
13975;SDS011;7062;49.792;9.946;2023-08-06T11:34:35;0.07;;;0.07;;
13975;SDS011;7062;49.792;9.946;2023-08-06T11:37:02;0.30;;;0.30;;
13975;SDS011;7062;49.792;9.946;2023-08-06T11:39:35;0.10;;;0.10;;
13975;SDS011;7062;49.792;9.946;2023-08-06T11:42:08;0.43;;;0.23;;
13975;SDS011;7062;49.792;9.946;2023-08-06T11:44:36;0.10;;;0.10;;
13975;SDS011;7062;49.792;9.946;2023-08-06T11:47:03;0.10;;;0.10;;
13975;SDS011;7062;49.792;9.946;2023-08-06T11:52:22;0.33;;;0.10;;
13975;SDS011;7062;49.792;9.946;2023-08-06T11:55:02;1.50;;;0.20;;
13975;SDS011;7062;49.792;9.946;2023-08-06T11:57:32;0.50;;;0.20;;
13975;SDS011;7062;49.792;9.946;2023-08-06T12:02:38;0.87;;;0.10;;
13975;SDS011;7062;49.792;9.946;2023-08-06T12:07:47;2.13;;;0.20;;
13975;SDS011;7062;49.792;9.946;2023-08-06T12:10:14;0.33;;;0.10;;
13975;SDS011;7062;49.792;9.946;2023-08-06T12:12:41;0.30;;;0.20;;
13975;SDS011;7062;49.792;9.946;2023-08-06T12:15:07;2.10;;;0.20;;
13975;SDS011;7062;49.792;9.946;2023-08-06T12:17:35;0.50;;;0.50;;
13975;SDS011;7062;49.792;9.946;2023-08-06T12:20:02;0.10;;;0.10;;
13975;SDS011;7062;49.792;9.946;2023-08-06T12:22:29;0.43;;;0.10;;
13975;SDS011;7062;49.792;9.946;2023-08-06T12:24:59;0.37;;;0.20;;
13975;SDS011;7062;49.792;9.946;2023-08-06T12:27:26;0.20;;;0.10;;
13975;SDS011;7062;49.792;9.946;2023-08-06T12:29:51;0.20;;;0.20;;
13975;SDS011;7062;49.792;9.946;2023-08-06T12:32:17;0.40;;;0.40;;
13975;SDS011;7062;49.792;9.946;2023-08-06T12:34:44;0.40;;;0.20;;
13975;SDS011;7062;49.792;9.946;2023-08-06T12:37:09;0.63;;;0.23;;
13975;SDS011;7062;49.792;9.946;2023-08-06T12:39:35;0.60;;;0.10;;
13975;SDS011;7062;49.792;9.946;2023-08-06T12:42:02;0.10;;;0.10;;
13975;SDS011;7062;49.792;9.946;2023-08-06T12:44:29;0.30;;;0.20;;
13975;SDS011;7062;49.792;9.946;2023-08-06T12:46:55;0.83;;;0.30;;
13975;SDS011;7062;49.792;9.946;2023-08-06T12:49:21;0.30;;;0.20;;
13975;SDS011;7062;49.792;9.946;2023-08-06T12:51:51;2.90;;;0.20;;
13975;SDS011;7062;49.792;9.946;2023-08-06T12:54:17;0.10;;;0.10;;
13975;SDS011;7062;49.792;9.946;2023-08-06T12:56:44;0.20;;;0.20;;
13975;SDS011;7062;49.792;9.946;2023-08-06T12:59:11;0.10;;;0.10;;
13975;SDS011;7062;49.792;9.946;2023-08-06T13:01:40;0.10;;;0.10;;
13975;SDS011;7062;49.792;9.946;2023-08-06T13:04:06;0.13;;;0.13;;
13975;SDS011;7062;49.792;9.946;2023-08-06T13:06:32;1.13;;;0.33;;
13975;SDS011;7062;49.792;9.946;2023-08-06T13:09:08;0.37;;;0.27;;
13975;SDS011;7062;49.792;9.946;2023-08-06T13:11:35;0.30;;;0.30;;
13975;SDS011;7062;49.792;9.946;2023-08-06T13:14:05;0.20;;;0.20;;
13975;SDS011;7062;49.792;9.946;2023-08-06T13:16:31;0.20;;;0.10;;
13975;SDS011;7062;49.792;9.946;2023-08-06T13:18:57;0.10;;;0.10;;
13975;SDS011;7062;49.792;9.946;2023-08-06T13:21:23;0.47;;;0.20;;
13975;SDS011;7062;49.792;9.946;2023-08-06T13:23:49;0.27;;;0.20;;
13975;SDS011;7062;49.792;9.946;2023-08-06T13:26:14;0.93;;;0.33;;
13975;SDS011;7062;49.792;9.946;2023-08-06T13:28:43;0.30;;;0.27;;
13975;SDS011;7062;49.792;9.946;2023-08-06T13:31:09;1.53;;;0.20;;
13975;SDS011;7062;49.792;9.946;2023-08-06T13:33:35;0.20;;;0.10;;
13975;SDS011;7062;49.792;9.946;2023-08-06T13:36:00;0.77;;;0.10;;
13975;SDS011;7062;49.792;9.946;2023-08-06T13:38:26;0.17;;;0.13;;
13975;SDS011;7062;49.792;9.946;2023-08-06T13:40:52;0.50;;;0.20;;
13975;SDS011;7062;49.792;9.946;2023-08-06T13:43:17;0.10;;;0.10;;
13975;SDS011;7062;49.792;9.946;2023-08-06T13:45:44;0.27;;;0.20;;
13975;SDS011;7062;49.792;9.946;2023-08-06T13:48:10;1.13;;;0.17;;
13975;SDS011;7062;49.792;9.946;2023-08-06T13:50:35;1.40;;;0.10;;
13975;SDS011;7062;49.792;9.946;2023-08-06T13:53:02;0.63;;;0.10;;
13975;SDS011;7062;49.792;9.946;2023-08-06T13:55:28;1.07;;;0.10;;
13975;SDS011;7062;49.792;9.946;2023-08-06T13:57:54;0.10;;;0.07;;
13975;SDS011;7062;49.792;9.946;2023-08-06T14:00:20;0.73;;;0.20;;
13975;SDS011;7062;49.792;9.946;2023-08-06T14:02:46;0.20;;;0.20;;
13975;SDS011;7062;49.792;9.946;2023-08-06T14:05:12;0.10;;;0.10;;
13975;SDS011;7062;49.792;9.946;2023-08-06T14:07:38;0.60;;;0.30;;
13975;SDS011;7062;49.792;9.946;2023-08-06T14:10:04;0.10;;;0.10;;
13975;SDS011;7062;49.792;9.946;2023-08-06T14:12:30;0.30;;;0.30;;
13975;SDS011;7062;49.792;9.946;2023-08-06T14:14:56;0.27;;;0.20;;
13975;SDS011;7062;49.792;9.946;2023-08-06T14:17:22;0.20;;;0.20;;
13975;SDS011;7062;49.792;9.946;2023-08-06T14:19:47;0.63;;;0.30;;
13975;SDS011;7062;49.792;9.946;2023-08-06T14:22:13;0.20;;;0.20;;
13975;SDS011;7062;49.792;9.946;2023-08-06T14:24:39;4.33;;;0.50;;
13975;SDS011;7062;49.792;9.946;2023-08-06T14:27:04;0.53;;;0.30;;
13975;SDS011;7062;49.792;9.946;2023-08-06T14:29:31;2.53;;;0.50;;
13975;SDS011;7062;49.792;9.946;2023-08-06T14:31:56;0.30;;;0.30;;
13975;SDS011;7062;49.792;9.946;2023-08-06T14:34:22;0.47;;;0.27;;
13975;SDS011;7062;49.792;9.946;2023-08-06T14:36:48;0.37;;;0.30;;
13975;SDS011;7062;49.792;9.946;2023-08-06T14:39:13;0.53;;;0.40;;
13975;SDS011;7062;49.792;9.946;2023-08-06T14:41:39;0.90;;;0.30;;
13975;SDS011;7062;49.792;9.946;2023-08-06T14:44:05;0.67;;;0.30;;
13975;SDS011;7062;49.792;9.946;2023-08-06T14:46:32;0.50;;;0.27;;
13975;SDS011;7062;49.792;9.946;2023-08-06T14:48:58;0.30;;;0.30;;
13975;SDS011;7062;49.792;9.946;2023-08-06T14:51:24;0.37;;;0.30;;
13975;SDS011;7062;49.792;9.946;2023-08-06T14:53:49;0.20;;;0.20;;
13975;SDS011;7062;49.792;9.946;2023-08-06T14:56:15;0.57;;;0.30;;
13975;SDS011;7062;49.792;9.946;2023-08-06T14:58:41;0.27;;;0.20;;
13975;SDS011;7062;49.792;9.946;2023-08-06T15:01:07;1.43;;;0.23;;
13975;SDS011;7062;49.792;9.946;2023-08-06T15:03:32;1.70;;;0.60;;
13975;SDS011;7062;49.792;9.946;2023-08-06T15:05:58;0.40;;;0.20;;
13975;SDS011;7062;49.792;9.946;2023-08-06T15:08:24;1.37;;;0.27;;
13975;SDS011;7062;49.792;9.946;2023-08-06T15:10:50;0.20;;;0.20;;
13975;SDS011;7062;49.792;9.946;2023-08-06T15:13:17;0.50;;;0.20;;
13975;SDS011;7062;49.792;9.946;2023-08-06T15:15:43;0.67;;;0.33;;
13975;SDS011;7062;49.792;9.946;2023-08-06T15:18:09;1.20;;;0.30;;